Time;durP1;ratioP1;P1;durP2;ratioP2;P2;SDS_P1;SDS_P2;PMS_P1;PMS_P2;Temp;Humidity;BMP_temperature;BMP_pressure;BME280_temperature;BME280_humidity;BME280_pressure;Samples;Min_cycle;Max_cycle;Signal;HPM_P1;HPM_P2
2021/09/23 00:01:48;;;;;;;25.70;18.00;;;;;;;8.29;91.63;97249.36;115701;1196;29518;-81
2021/09/23 00:04:32;;;;;;;25.00;17.70;;;;;;;8.31;91.57;97244.91;115751;1196;29699;-81
2021/09/23 00:07:04;;;;;;;22.50;16.60;;;;;;;8.33;91.44;97242.66;115739;1196;33597;-82
2021/09/23 00:09:35;;;;;;;25.10;16.70;;;;;;;8.35;91.48;97240.85;115735;1194;29391;-82
2021/09/23 00:12:06;;;;;;;21.50;15.50;;;;;;;8.36;91.48;97238.17;115731;1190;30017;-82
2021/09/23 00:14:37;;;;;;;23.90;16.80;;;;;;;8.36;91.39;97230.98;115718;1196;30698;-81
2021/09/23 00:17:09;;;;;;;22.40;16.40;;;;;;;8.36;91.38;97231.41;115762;1196;24354;-81
2021/09/23 00:19:39;;;;;;;24.00;17.10;;;;;;;8.37;91.44;97233.10;115783;1195;30283;-81
2021/09/23 00:22:10;;;;;;;24.90;16.40;;;;;;;8.37;91.33;97227.13;115816;1196;28101;-81
2021/09/23 00:24:41;;;;;;;22.90;16.50;;;;;;;8.38;91.42;97233.33;115778;1196;29568;-81
2021/09/23 00:27:12;;;;;;;23.40;16.80;;;;;;;8.37;91.42;97233.38;115831;1196;26708;-81
2021/09/23 00:29:45;;;;;;;23.40;17.70;;;;;;;8.38;91.44;97229.73;115803;1196;24792;-82
2021/09/23 00:32:15;;;;;;;25.60;18.10;;;;;;;8.38;91.47;97231.15;115700;1196;27909;-81
2021/09/23 00:34:46;;;;;;;21.30;16.80;;;;;;;8.38;91.41;97228.99;115828;1196;26985;-81
2021/09/23 00:37:17;;;;;;;27.20;18.80;;;;;;;8.39;91.50;97230.27;115766;1196;30009;-81
2021/09/23 00:39:48;;;;;;;27.30;18.50;;;;;;;8.39;91.46;97222.65;115712;1196;79310;-81
2021/09/23 00:42:19;;;;;;;24.90;18.30;;;;;;;8.39;91.42;97225.04;115752;1196;31139;-82
2021/09/23 00:44:57;;;;;;;27.10;18.20;;;;;;;8.38;91.62;97225.14;115755;1196;29008;-81
2021/09/23 00:47:28;;;;;;;23.00;17.00;;;;;;;8.37;91.70;97221.05;115729;1195;27080;-82
2021/09/23 00:49:59;;;;;;;24.40;17.80;;;;;;;8.36;91.76;97220.31;115781;1196;29027;-82
2021/09/23 00:52:31;;;;;;;25.70;17.20;;;;;;;8.36;91.81;97218.45;115804;1196;25699;-82
2021/09/23 00:55:02;;;;;;;22.10;16.90;;;;;;;8.36;91.77;97214.23;115785;1196;30748;-82
2021/09/23 00:57:33;;;;;;;24.70;17.40;;;;;;;8.36;91.76;97209.84;115813;1196;29360;-82
2021/09/23 01:00:05;;;;;;;25.00;18.20;;;;;;;8.36;91.84;97205.52;115765;1196;56352;-82
2021/09/23 01:02:35;;;;;;;21.70;16.40;;;;;;;8.35;91.84;97205.14;115856;1196;31200;-82
2021/09/23 01:05:08;;;;;;;22.20;16.60;;;;;;;8.34;91.90;97201.73;115712;1196;28600;-82
2021/09/23 01:07:43;;;;;;;23.70;16.50;;;;;;;8.33;92.05;97200.02;115730;1196;28179;-82
2021/09/23 01:10:16;;;;;;;27.30;17.50;;;;;;;8.30;91.98;97201.83;115791;1184;25135;-82
2021/09/23 01:12:47;;;;;;;27.40;17.60;;;;;;;8.30;92.09;97205.25;115735;1196;26612;-81
2021/09/23 01:15:19;;;;;;;25.70;17.70;;;;;;;8.29;92.04;97202.55;115773;1196;26694;-82
2021/09/23 01:17:50;;;;;;;24.30;17.30;;;;;;;8.28;92.07;97201.59;115716;1195;74750;-82
2021/09/23 01:20:22;;;;;;;23.10;16.60;;;;;;;8.28;92.11;97199.85;115727;1196;24200;-81
2021/09/23 01:22:53;;;;;;;24.50;17.50;;;;;;;8.29;92.11;97199.22;115758;1195;34768;-82
2021/09/23 01:25:24;;;;;;;22.90;16.60;;;;;;;8.29;92.33;97193.45;115756;1196;28716;-82
2021/09/23 01:27:55;;;;;;;26.30;18.70;;;;;;;8.28;92.24;97191.48;115732;1189;28805;-82
2021/09/23 01:30:26;;;;;;;26.40;17.30;;;;;;;8.28;92.24;97188.42;115746;1196;28962;-82
2021/09/23 01:32:57;;;;;;;23.80;17.10;;;;;;;8.27;92.31;97182.24;115770;1196;34427;-81
2021/09/23 01:35:26;;;;;;;;;;;;;;;8.26;92.17;97178.64;115728;1196;27496;-81
2021/09/23 01:37:56;;;;;;;22.00;16.50;;;;;;;8.25;92.25;97177.95;115701;1196;27963;-82
2021/09/23 01:40:27;;;;;;;22.60;16.60;;;;;;;8.24;92.40;97174.09;115818;1196;24336;-83
2021/09/23 01:42:58;;;;;;;25.60;18.10;;;;;;;8.24;92.35;97178.95;115788;1190;30795;-82
2021/09/23 01:45:29;;;;;;;27.00;18.00;;;;;;;8.23;92.56;97183.53;115725;1196;29494;-82
2021/09/23 01:48:00;;;;;;;24.50;17.50;;;;;;;8.22;92.51;97179.04;115755;1196;24933;-81
2021/09/23 01:50:30;;;;;;;23.60;17.10;;;;;;;8.21;92.59;97177.55;115761;1196;25611;-82
2021/09/23 01:53:01;;;;;;;26.30;17.10;;;;;;;8.21;92.54;97170.15;115727;1195;31630;-81
2021/09/23 01:55:32;;;;;;;27.30;18.00;;;;;;;8.21;92.63;97165.39;115679;1196;27599;-81
2021/09/23 01:58:03;;;;;;;23.70;15.90;;;;;;;8.20;92.60;97165.34;115756;1196;30158;-82
2021/09/23 02:00:34;;;;;;;24.10;16.20;;;;;;;8.19;92.73;97169.51;115723;1196;31025;-82
2021/09/23 02:03:04;;;;;;;24.60;16.90;;;;;;;8.17;92.83;97174.35;115802;1196;26741;-82
2021/09/23 02:05:36;;;;;;;25.50;16.70;;;;;;;8.16;92.72;97167.45;115796;1196;28347;-81
2021/09/23 02:08:07;;;;;;;23.70;17.70;;;;;;;8.15;92.62;97161.20;115754;1196;28192;-81
2021/09/23 02:10:38;;;;;;;27.30;18.00;;;;;;;8.13;92.78;97163.82;115754;1190;30544;-81
2021/09/23 02:13:08;;;;;;;24.30;16.20;;;;;;;8.11;92.68;97169.09;115760;1196;44476;-83
2021/09/23 02:15:39;;;;;;;26.00;16.60;;;;;;;8.10;92.78;97163.11;115817;1196;29011;-82
2021/09/23 02:18:10;;;;;;;23.10;16.90;;;;;;;8.10;92.47;97154.98;115761;1189;24230;-82
2021/09/23 02:20:41;;;;;;;22.40;15.70;;;;;;;8.09;92.43;97161.14;115752;1183;26642;-82
2021/09/23 02:23:12;;;;;;;22.90;15.50;;;;;;;8.08;92.40;97150.10;115835;1190;25822;-81
2021/09/23 02:25:42;;;;;;;22.20;15.90;;;;;;;8.07;92.46;97146.71;115746;1196;29831;-81
2021/09/23 02:28:13;;;;;;;22.50;16.30;;;;;;;8.05;92.58;97143.74;115806;1196;35081;-82
2021/09/23 02:30:44;;;;;;;22.80;15.90;;;;;;;8.02;92.55;97138.23;115858;1190;27286;-81
2021/09/23 02:33:14;;;;;;;23.60;15.80;;;;;;;8.00;92.62;97131.36;115795;1174;25950;-81
2021/09/23 02:35:45;;;;;;;20.30;14.10;;;;;;;7.98;92.58;97127.38;115780;1196;26973;-81
2021/09/23 02:38:16;;;;;;;23.70;16.00;;;;;;;7.95;92.49;97124.83;115828;1195;27320;-81
2021/09/23 02:40:47;;;;;;;22.30;15.70;;;;;;;7.94;92.64;97121.50;115776;1196;26842;-81
2021/09/23 02:43:18;;;;;;;22.90;15.70;;;;;;;7.91;92.49;97121.90;115781;1196;28639;-81
2021/09/23 02:45:49;;;;;;;22.40;15.30;;;;;;;7.90;92.68;97120.67;115786;1196;30279;-82
2021/09/23 02:48:20;;;;;;;20.70;15.20;;;;;;;7.88;92.78;97117.61;115765;1190;42874;-82
2021/09/23 02:50:51;;;;;;;23.20;15.20;;;;;;;7.85;92.86;97113.25;115762;1196;33553;-81
2021/09/23 02:53:23;;;;;;;19.80;14.40;;;;;;;7.83;92.95;97111.34;115694;1196;28816;-82
2021/09/23 02:55:53;;;;;;;20.60;14.80;;;;;;;7.82;93.04;97109.48;115730;1189;29666;-81
2021/09/23 02:58:24;;;;;;;19.10;14.40;;;;;;;7.79;92.90;97102.17;115679;1196;71300;-82
2021/09/23 03:00:55;;;;;;;19.40;14.20;;;;;;;7.75;92.84;97096.84;115657;1197;33681;-81
2021/09/23 03:03:26;;;;;;;21.80;15.40;;;;;;;7.71;93.07;97097.29;115702;1196;30825;-82
2021/09/23 03:05:56;;;;;;;21.00;14.40;;;;;;;7.70;93.18;97104.29;115651;1197;29558;-81
2021/09/23 03:08:27;;;;;;;22.10;16.00;;;;;;;7.68;93.21;97104.31;115625;1198;29779;-82
2021/09/23 03:10:58;;;;;;;21.90;15.50;;;;;;;7.70;93.25;97104.27;115598;1197;80597;-82
2021/09/23 03:13:28;;;;;;;23.40;15.30;;;;;;;7.72;93.20;97109.73;115585;1198;35185;-81
2021/09/23 03:16:02;;;;;;;22.50;15.00;;;;;;;7.74;93.29;97106.08;115758;1196;34465;-81
2021/09/23 03:18:33;;;;;;;21.40;14.40;;;;;;;7.76;93.28;97102.83;115705;1196;27854;-82
2021/09/23 03:21:04;;;;;;;22.70;16.50;;;;;;;7.77;93.21;97096.34;115744;1196;26829;-82
2021/09/23 03:23:35;;;;;;;22.50;15.30;;;;;;;7.78;93.11;97092.83;115757;1196;37644;-81
2021/09/23 03:26:04;;;;;;;;;;;;;;;7.77;92.96;97092.28;115744;1196;31032;-81
2021/09/23 03:28:35;;;;;;;21.60;13.90;;;;;;;7.76;93.01;97091.33;115697;1196;52447;-82
2021/09/23 03:31:07;;;;;;;21.70;16.30;;;;;;;7.74;92.98;97084.60;115666;1197;28752;-82
2021/09/23 03:33:37;;;;;;;21.70;14.80;;;;;;;7.72;92.94;97084.98;115687;1190;26026;-81
2021/09/23 03:36:08;;;;;;;21.50;15.50;;;;;;;7.70;93.02;97090.77;115699;1182;30213;-82
2021/09/23 03:38:40;;;;;;;21.20;15.50;;;;;;;7.69;93.05;97092.35;115717;1196;26911;-82
2021/09/23 03:41:11;;;;;;;22.30;16.00;;;;;;;7.69;93.19;97092.67;115759;1196;75722;-82
2021/09/23 03:43:42;;;;;;;22.20;14.50;;;;;;;7.66;93.11;97100.82;115742;1197;26554;-81
2021/09/23 03:46:13;;;;;;;20.20;14.00;;;;;;;7.64;93.16;97105.65;115731;1197;28074;-81
2021/09/23 03:48:45;;;;;;;19.20;15.10;;;;;;;7.60;93.23;97107.50;115788;1196;29260;-81
2021/09/23 03:51:15;;;;;;;24.00;15.80;;;;;;;7.55;93.10;97107.71;115761;1189;27426;-81
2021/09/23 03:53:48;;;;;;;21.80;15.80;;;;;;;7.52;93.11;97116.86;115755;1196;34174;-80
2021/09/23 03:56:19;;;;;;;22.80;15.60;;;;;;;7.51;93.14;97121.70;115800;1195;24729;-81
2021/09/23 03:58:49;;;;;;;23.10;15.20;;;;;;;7.52;93.05;97123.60;115718;1196;31423;-82
2021/09/23 04:01:20;;;;;;;23.60;16.00;;;;;;;7.54;93.09;97120.20;115764;1196;23636;-81
2021/09/23 04:03:51;;;;;;;24.50;16.70;;;;;;;7.56;93.10;97118.21;115761;1196;29730;-81
2021/09/23 04:06:21;;;;;;;23.00;16.40;;;;;;;7.56;93.02;97122.02;115731;1196;26586;-81
2021/09/23 04:08:52;;;;;;;20.50;15.50;;;;;;;7.57;92.84;97123.71;115706;1196;29209;-81
2021/09/23 04:11:23;;;;;;;20.20;14.80;;;;;;;7.58;92.81;97120.98;115668;1197;29323;-81
2021/09/23 04:13:54;;;;;;;22.50;15.30;;;;;;;7.58;92.85;97112.90;115778;1196;25121;-81
2021/09/23 04:16:24;;;;;;;20.20;14.60;;;;;;;7.58;92.67;97108.15;115714;1196;25670;-81
2021/09/23 04:18:55;;;;;;;20.80;14.70;;;;;;;7.59;92.67;97114.39;115714;1196;25914;-81
2021/09/23 04:21:26;;;;;;;21.40;15.40;;;;;;;7.59;92.74;97108.33;115735;1196;27316;-81
2021/09/23 04:23:57;;;;;;;20.50;14.60;;;;;;;7.58;92.71;97110.79;115692;1190;26926;-81
2021/09/23 04:26:28;;;;;;;20.70;14.60;;;;;;;7.59;92.70;97108.90;115730;1196;30767;-81
2021/09/23 04:28:59;;;;;;;19.00;13.70;;;;;;;7.59;92.64;97101.98;115689;1196;29676;-81
2021/09/23 04:31:30;;;;;;;23.00;16.70;;;;;;;7.59;92.40;97097.61;115707;1196;29630;-82
2021/09/23 04:34:01;;;;;;;21.80;15.80;;;;;;;7.59;92.33;97096.02;115720;1196;27995;-81
2021/09/23 04:36:32;;;;;;;19.50;14.70;;;;;;;7.59;92.23;97090.59;115742;1196;30950;-81
2021/09/23 04:39:03;;;;;;;21.50;15.70;;;;;;;7.58;92.13;97091.11;115667;1196;44363;-81
2021/09/23 04:41:34;;;;;;;21.80;15.50;;;;;;;7.57;92.07;97090.31;115678;1189;28989;-82
2021/09/23 04:44:05;;;;;;;20.60;12.90;;;;;;;7.58;92.01;97090.05;115655;1197;27337;-81
2021/09/23 04:46:36;;;;;;;21.90;15.70;;;;;;;7.61;91.97;97086.20;115740;1196;29219;-81
2021/09/23 04:49:07;;;;;;;26.00;15.50;;;;;;;7.68;92.08;97084.48;115718;1196;27847;-82
2021/09/23 04:51:40;;;;;;;22.50;15.00;;;;;;;7.81;92.19;97085.40;115687;1196;27820;-82
2021/09/23 04:54:11;;;;;;;20.20;14.80;;;;;;;7.86;91.91;97091.67;115747;1196;29593;-81
2021/09/23 04:56:42;;;;;;;23.50;16.70;;;;;;;7.88;91.67;97091.06;115701;1196;27582;-81
2021/09/23 04:59:13;;;;;;;21.70;14.50;;;;;;;7.89;91.49;97098.17;115832;1196;30819;-81
2021/09/23 05:01:44;;;;;;;25.20;18.50;;;;;;;7.91;91.37;97088.27;115711;1195;89303;-81
2021/09/23 05:04:15;;;;;;;23.60;15.90;;;;;;;7.93;91.39;97090.70;115745;1190;29064;-82
2021/09/23 05:06:46;;;;;;;19.90;13.90;;;;;;;7.95;91.33;97092.56;115662;1195;30294;-81
2021/09/23 05:09:17;;;;;;;23.30;16.80;;;;;;;7.95;91.31;97094.89;115766;1196;30061;-81
2021/09/23 05:11:48;;;;;;;27.40;19.80;;;;;;;7.95;91.21;97103.35;115796;1196;34581;-81
2021/09/23 05:14:18;;;;;;;20.30;14.20;;;;;;;7.97;91.21;97099.50;115820;1196;33262;-81
2021/09/23 05:16:49;;;;;;;21.20;15.20;;;;;;;7.98;91.08;97100.52;115705;1195;30493;-81
2021/09/23 05:19:20;;;;;;;22.40;15.60;;;;;;;8.00;91.06;97094.51;115739;1196;29972;-82
2021/09/23 05:21:51;;;;;;;20.10;13.90;;;;;;;8.01;91.02;97091.83;115712;1196;30358;-82
2021/09/23 05:24:21;;;;;;;20.60;15.00;;;;;;;8.05;90.88;97093.31;115718;1196;64518;-81
2021/09/23 05:26:52;;;;;;;23.00;16.00;;;;;;;8.08;90.69;97082.66;115714;1183;33781;-81
2021/09/23 05:29:23;;;;;;;19.10;13.80;;;;;;;8.12;90.55;97078.99;115762;1196;26303;-82
2021/09/23 05:31:54;;;;;;;20.80;13.80;;;;;;;8.20;90.42;97076.90;115760;1196;28583;-81
2021/09/23 05:34:25;;;;;;;19.40;14.40;;;;;;;8.31;90.39;97074.83;115773;1196;28336;-81
2021/09/23 05:36:56;;;;;;;21.80;14.90;;;;;;;8.40;90.05;97082.59;115801;1196;28299;-81
2021/09/23 05:39:27;;;;;;;23.60;16.10;;;;;;;8.50;89.76;97082.36;115820;1195;30251;-82
2021/09/23 05:41:58;;;;;;;18.80;13.70;;;;;;;8.61;89.66;97086.29;115766;1196;45153;-82
2021/09/23 05:44:29;;;;;;;21.00;14.50;;;;;;;8.76;89.39;97082.27;115797;1196;24583;-81
2021/09/23 05:47:01;;;;;;;16.50;12.50;;;;;;;8.98;89.01;97082.63;115742;1195;33325;-82
2021/09/23 05:49:32;;;;;;;18.70;13.40;;;;;;;9.33;88.51;97082.48;115715;1196;28116;-82
2021/09/23 05:52:03;;;;;;;15.00;10.90;;;;;;;9.64;88.12;97085.98;115760;1196;30559;-82
2021/09/23 05:54:34;;;;;;;16.40;12.00;;;;;;;10.47;88.38;97084.45;115720;1196;38518;-82
2021/09/23 05:57:05;;;;;;;16.40;11.70;;;;;;;10.49;86.28;97079.83;115719;1196;27181;-82
2021/09/23 05:59:37;;;;;;;16.20;11.60;;;;;;;10.43;85.74;97072.33;115762;1195;29066;-82
2021/09/23 06:02:08;;;;;;;14.30;10.50;;;;;;;10.35;84.98;97059.70;115742;1195;27408;-82
2021/09/23 06:04:39;;;;;;;14.90;11.00;;;;;;;10.32;84.63;97052.87;115714;1196;30631;-81
2021/09/23 06:07:10;;;;;;;15.50;11.70;;;;;;;10.94;85.34;97057.01;115745;1196;62417;-82
2021/09/23 06:09:41;;;;;;;15.10;10.90;;;;;;;12.52;84.63;97053.88;115704;1196;28137;-82
2021/09/23 06:12:12;;;;;;;13.10;10.00;;;;;;;13.42;80.56;97052.16;115772;1196;27685;-82
2021/09/23 06:14:43;;;;;;;12.60;10.10;;;;;;;13.13;78.13;97042.94;115799;1190;29333;-81
2021/09/23 06:17:14;;;;;;;12.30;9.50;;;;;;;12.77;77.73;97042.19;115831;1190;28244;-82
2021/09/23 06:19:45;;;;;;;12.20;8.70;;;;;;;13.32;78.08;97047.05;115795;1189;31085;-82
2021/09/23 06:22:16;;;;;;;11.60;8.60;;;;;;;14.14;79.03;97049.83;115798;1196;25552;-83
2021/09/23 06:24:48;;;;;;;11.60;9.40;;;;;;;15.26;76.21;97047.77;115833;1196;27538;-82
2021/09/23 06:27:19;;;;;;;11.90;8.60;;;;;;;15.08;74.29;97053.02;115662;1196;28184;-81
2021/09/23 06:29:50;;;;;;;10.90;8.60;;;;;;;14.63;72.44;97045.08;115742;1196;36774;-82
2021/09/23 06:32:21;;;;;;;12.00;9.20;;;;;;;13.59;71.40;97043.04;115710;1196;25296;-82
2021/09/23 06:34:53;;;;;;;10.00;8.00;;;;;;;12.69;72.07;97042.91;115648;1197;32916;-82
2021/09/23 06:37:24;;;;;;;11.70;8.40;;;;;;;12.11;73.70;97042.95;115713;1195;36583;-82
2021/09/23 06:39:56;;;;;;;11.80;8.30;;;;;;;11.81;74.72;97042.34;115670;1196;30366;-82
2021/09/23 06:42:27;;;;;;;11.50;8.70;;;;;;;11.48;75.07;97045.86;115615;1197;30766;-82
2021/09/23 06:44:58;;;;;;;11.10;8.30;;;;;;;11.18;76.10;97053.52;115680;1182;29151;-83
2021/09/23 06:47:29;;;;;;;13.30;9.50;;;;;;;10.89;75.83;97056.14;115671;1197;31136;-82
2021/09/23 06:50:00;;;;;;;13.10;9.50;;;;;;;10.58;76.69;97059.05;115739;1196;28131;-82
2021/09/23 06:52:31;;;;;;;12.70;9.40;;;;;;;10.38;77.26;97062.73;115647;1191;31677;-83
2021/09/23 06:55:03;;;;;;;15.50;10.30;;;;;;;10.19;77.65;97061.84;115733;1196;30216;-82
2021/09/23 06:57:34;;;;;;;14.20;9.30;;;;;;;10.03;78.29;97057.48;115680;1196;27066;-81
2021/09/23 07:00:07;;;;;;;13.10;10.00;;;;;;;9.94;78.93;97053.38;115656;1197;29377;-82
2021/09/23 07:02:38;;;;;;;14.30;10.30;;;;;;;9.90;79.38;97051.00;115658;1196;31281;-82
2021/09/23 07:05:10;;;;;;;13.30;9.70;;;;;;;9.88;79.87;97046.50;115729;1195;26582;-82
2021/09/23 07:07:42;;;;;;;15.90;10.80;;;;;;;9.95;80.33;97049.14;115694;1196;38070;-82
2021/09/23 07:10:13;;;;;;;13.10;9.50;;;;;;;10.01;80.64;97047.10;115723;1196;48653;-82
2021/09/23 07:12:45;;;;;;;13.50;9.60;;;;;;;10.09;80.84;97039.20;115694;1197;29494;-82
2021/09/23 07:15:16;;;;;;;13.00;8.50;;;;;;;10.26;80.96;97033.30;115761;1196;29356;-82
2021/09/23 07:17:47;;;;;;;11.80;8.60;;;;;;;10.55;80.97;97030.95;115706;1190;30996;-80
2021/09/23 07:20:17;;;;;;;12.90;8.30;;;;;;;10.81;80.62;97033.09;115727;1196;27882;-81
2021/09/23 07:22:48;;;;;;;12.30;7.80;;;;;;;11.08;80.70;97034.27;115611;1193;35479;-81
2021/09/23 07:25:23;;;;;;;12.90;9.00;;;;;;;11.45;80.06;97030.48;115691;1196;25484;-81
2021/09/23 07:27:58;;;;;;;10.90;8.40;;;;;;;11.75;79.73;97026.02;115691;1197;28306;-82
2021/09/23 07:30:30;;;;;;;11.40;7.70;;;;;;;12.09;79.57;97019.81;115663;1197;29264;-81
2021/09/23 07:33:01;;;;;;;10.20;6.80;;;;;;;12.22;78.63;97026.50;115665;1197;28472;-82
2021/09/23 07:35:34;;;;;;;7.90;6.00;;;;;;;12.11;77.67;97023.45;115704;1196;30053;-83
2021/09/23 07:38:05;;;;;;;8.90;5.90;;;;;;;11.92;77.12;97022.42;115607;1198;31735;-83
2021/09/23 07:40:36;;;;;;;8.30;5.80;;;;;;;11.73;77.28;97014.39;115711;1196;30815;-82
2021/09/23 07:43:08;;;;;;;8.90;6.00;;;;;;;11.67;77.50;97017.44;115687;1196;28782;-81
2021/09/23 07:45:39;;;;;;;8.90;6.30;;;;;;;11.64;77.68;97013.80;115722;1196;24488;-81
2021/09/23 07:48:09;;;;;;;7.90;5.80;;;;;;;11.54;76.46;97005.67;115666;1196;25456;-81
2021/09/23 07:50:41;;;;;;;7.90;5.60;;;;;;;11.49;77.12;97006.76;115678;1197;32682;-82
2021/09/23 07:53:12;;;;;;;8.30;5.60;;;;;;;11.58;76.82;97002.80;115738;1197;28846;-82
2021/09/23 07:55:42;;;;;;;10.20;5.70;;;;;;;11.69;77.36;96998.52;115740;1196;37063;-83
2021/09/23 07:58:13;;;;;;;7.80;5.40;;;;;;;12.12;77.67;96986.97;115808;1196;38461;-82
2021/09/23 08:00:44;;;;;;;8.40;5.30;;;;;;;13.12;76.47;96972.24;115841;1196;25566;-84
2021/09/23 08:03:15;;;;;;;7.00;5.00;;;;;;;13.98;75.16;96980.13;115812;1196;31466;-82
2021/09/23 08:05:45;;;;;;;7.40;4.70;;;;;;;14.45;74.21;96982.79;115807;1196;31052;-82
2021/09/23 08:08:16;;;;;;;6.10;4.30;;;;;;;14.44;72.16;96990.65;115807;1196;26770;-82
2021/09/23 08:10:47;;;;;;;6.50;4.40;;;;;;;14.04;70.87;96992.47;115744;1196;27114;-81
2021/09/23 08:13:18;;;;;;;7.90;4.70;;;;;;;13.81;70.52;96987.80;115740;1196;27121;-81
2021/09/23 08:15:49;;;;;;;7.50;4.40;;;;;;;13.56;70.38;96994.48;115789;1196;25917;-82
2021/09/23 08:18:22;;;;;;;8.00;4.60;;;;;;;13.54;70.76;96985.98;115762;1196;48259;-82
2021/09/23 08:20:53;;;;;;;6.90;4.40;;;;;;;13.98;71.70;96987.76;115707;1196;30094;-82
2021/09/23 08:23:24;;;;;;;6.00;3.90;;;;;;;14.40;71.17;96980.52;115718;1196;32350;-82
2021/09/23 08:25:55;;;;;;;5.30;4.00;;;;;;;14.65;70.18;96973.38;115678;1196;60007;-81
2021/09/23 08:28:28;;;;;;;7.50;4.70;;;;;;;14.83;70.24;96971.54;115737;1196;26115;-84
2021/09/23 08:31:00;;;;;;;6.70;4.20;;;;;;;14.95;69.54;96969.81;115777;1196;31122;-82
2021/09/23 08:33:31;;;;;;;6.00;3.90;;;;;;;15.04;69.23;96966.96;115763;1181;32345;-83
2021/09/23 08:36:02;;;;;;;5.10;3.50;;;;;;;15.17;69.46;96970.77;115808;1196;26480;-82
2021/09/23 08:38:33;;;;;;;5.10;4.00;;;;;;;15.29;69.03;96967.67;115740;1189;29545;-82
2021/09/23 08:41:04;;;;;;;6.00;3.60;;;;;;;15.40;68.38;96962.91;115736;1190;40357;-83
2021/09/23 08:43:36;;;;;;;6.60;4.40;;;;;;;15.38;67.52;96961.41;115779;1196;34893;-83
2021/09/23 08:46:07;;;;;;;4.90;3.60;;;;;;;15.40;67.33;96956.48;115791;1196;27071;-82
2021/09/23 08:48:39;;;;;;;7.50;4.20;;;;;;;15.58;67.86;96950.67;115721;1196;30272;-84
2021/09/23 08:51:10;;;;;;;7.50;3.90;;;;;;;15.65;66.13;96950.80;115724;1196;27846;-82
2021/09/23 08:53:41;;;;;;;7.10;3.90;;;;;;;15.49;65.74;96946.48;115668;1196;30450;-83
2021/09/23 08:56:19;;;;;;;8.60;4.20;;;;;;;15.39;66.30;96948.44;115816;1183;29732;-82
2021/09/23 08:58:51;;;;;;;9.40;4.40;;;;;;;15.28;65.89;96948.36;115773;1196;30155;-83
2021/09/23 09:01:29;;;;;;;6.10;4.10;;;;;;;15.16;66.21;96948.77;115658;1197;27745;-82
2021/09/23 09:04:05;;;;;;;6.00;3.70;;;;;;;15.14;66.23;96942.20;115750;1196;27975;-84
2021/09/23 09:06:36;;;;;;;8.10;4.80;;;;;;;15.06;66.59;96943.68;115735;1189;28292;-83
2021/09/23 09:09:19;;;;;;;7.60;4.60;;;;;;;15.19;67.04;96943.21;115718;1196;31208;-82
2021/09/23 09:11:53;;;;;;;7.70;4.30;;;;;;;15.29;66.49;96942.02;115735;1196;29014;-83
2021/09/23 09:14:28;;;;;;;9.40;4.80;;;;;;;15.14;65.88;96939.84;115767;1196;26922;-83
2021/09/23 09:17:06;;;;;;;7.40;4.40;;;;;;;15.06;67.13;96940.60;115726;1196;28406;-82
2021/09/23 09:19:50;;;;;;;7.40;4.30;;;;;;;15.18;67.16;96939.48;115705;1196;28401;-83
2021/09/23 09:22:24;;;;;;;9.30;4.40;;;;;;;15.40;67.86;96942.75;115721;1196;26509;-82
2021/09/23 09:24:58;;;;;;;8.30;4.40;;;;;;;15.45;66.27;96939.94;115759;1196;30362;-83
2021/09/23 09:27:39;;;;;;;9.20;4.00;;;;;;;15.39;67.02;96941.12;115774;1196;33253;-84
2021/09/23 09:30:09;;;;;;;;;;;;;;;15.31;66.42;96930.23;115636;1197;29751;-83
2021/09/23 09:32:44;;;;;;;6.40;4.20;;;;;;;15.12;65.95;96925.90;115811;1196;26927;-83
2021/09/23 09:35:18;;;;;;;7.20;4.50;;;;;;;14.94;66.35;96925.69;115779;1189;30366;-84
2021/09/23 09:37:52;;;;;;;9.90;4.30;;;;;;;14.98;66.82;96928.17;115760;1196;27673;-83
2021/09/23 09:40:26;;;;;;;9.30;4.50;;;;;;;14.94;67.30;96929.85;115734;1196;27800;-83
2021/09/23 09:42:57;;;;;;;6.70;3.90;;;;;;;14.84;67.08;96930.79;115746;1196;26804;-83
2021/09/23 09:45:30;;;;;;;8.30;3.70;;;;;;;14.72;67.34;96928.57;115696;1195;28951;-84
2021/09/23 09:48:03;;;;;;;7.30;3.30;;;;;;;14.57;67.02;96932.91;115779;1196;26489;-82
2021/09/23 09:50:36;;;;;;;7.10;3.40;;;;;;;14.30;66.70;96934.70;115797;1196;26498;-83
2021/09/23 09:53:11;;;;;;;8.20;2.70;;;;;;;14.09;66.83;96936.27;115737;1196;31394;-83
2021/09/23 09:55:45;;;;;;;8.30;3.20;;;;;;;14.13;67.58;96936.17;115799;1196;26678;-83
2021/09/23 09:58:22;;;;;;;6.90;3.20;;;;;;;14.22;67.64;96940.98;115840;1196;26338;-83
2021/09/23 10:00:53;;;;;;;8.40;2.70;;;;;;;14.08;67.32;96947.61;115770;1196;27575;-82
2021/09/23 10:03:25;;;;;;;4.80;2.80;;;;;;;13.85;66.83;96949.79;115786;1196;27829;-83
2021/09/23 10:05:56;;;;;;;7.20;3.10;;;;;;;13.62;66.77;96946.63;115795;1196;26209;-83
2021/09/23 10:08:36;;;;;;;7.20;2.90;;;;;;;13.42;67.33;96941.31;115721;1196;25695;-83
2021/09/23 10:11:07;;;;;;;7.00;3.00;;;;;;;13.30;67.64;96932.59;115763;1196;28574;-83
2021/09/23 10:13:39;;;;;;;5.90;2.50;;;;;;;13.21;68.14;96925.23;115773;1196;27799;-83
2021/09/23 10:16:11;;;;;;;6.70;2.90;;;;;;;13.14;68.45;96926.48;115781;1196;27535;-83
2021/09/23 10:18:46;;;;;;;8.50;2.80;;;;;;;13.11;68.81;96918.55;115761;1196;29259;-83
2021/09/23 10:21:18;;;;;;;6.90;3.30;;;;;;;13.12;69.62;96915.23;115785;1189;27664;-81
2021/09/23 10:23:51;;;;;;;5.80;2.70;;;;;;;13.14;70.18;96913.02;115781;1195;71220;-82
2021/09/23 10:26:26;;;;;;;5.20;2.70;;;;;;;13.16;70.07;96911.08;115791;1196;28257;-82
2021/09/23 10:29:00;;;;;;;6.70;2.80;;;;;;;13.19;70.25;96905.94;115727;1196;30644;-82
2021/09/23 10:31:33;;;;;;;6.80;2.60;;;;;;;13.20;69.52;96899.33;115725;1196;28798;-84
2021/09/23 10:34:10;;;;;;;7.40;2.70;;;;;;;13.22;69.52;96898.34;115723;1196;69890;-82
2021/09/23 10:36:44;;;;;;;5.60;2.50;;;;;;;13.28;69.65;96894.44;115760;1196;28961;-82
2021/09/23 10:39:17;;;;;;;7.80;3.20;;;;;;;13.26;69.83;96890.64;115796;1196;27683;-82
2021/09/23 10:41:48;;;;;;;8.20;2.70;;;;;;;13.23;69.79;96887.04;115694;1190;27944;-83
2021/09/23 10:44:21;;;;;;;9.70;2.80;;;;;;;13.26;70.01;96883.70;115737;1196;30562;-82
2021/09/23 10:46:55;;;;;;;6.50;2.90;;;;;;;13.45;69.69;96869.73;115793;1189;34088;-83
2021/09/23 10:49:29;;;;;;;7.00;2.60;;;;;;;13.73;69.96;96870.10;115656;1190;26865;-83
2021/09/23 10:52:02;;;;;;;4.90;2.60;;;;;;;13.97;69.05;96854.88;115757;1196;35584;-82
2021/09/23 10:54:34;;;;;;;6.70;3.00;;;;;;;14.14;68.88;96859.68;115681;1190;27733;-84
2021/09/23 10:57:08;;;;;;;9.30;3.40;;;;;;;14.27;67.83;96846.77;115755;1196;34037;-83
2021/09/23 10:59:41;;;;;;;5.90;2.60;;;;;;;14.33;67.59;96844.08;115726;1196;35811;-83
2021/09/23 11:02:27;;;;;;;7.90;3.00;;;;;;;14.35;67.26;96841.17;115711;1197;41849;-83
2021/09/23 11:05:00;;;;;;;9.50;3.20;;;;;;;14.33;67.90;96838.41;115768;1196;29717;-83
2021/09/23 11:07:34;;;;;;;6.30;3.20;;;;;;;14.36;67.66;96838.48;115671;1191;25492;-83
2021/09/23 11:10:08;;;;;;;8.80;4.00;;;;;;;14.40;68.03;96831.67;115638;1197;69521;-83
2021/09/23 11:12:41;;;;;;;7.90;3.50;;;;;;;14.44;67.76;96820.67;115702;1196;31461;-83
2021/09/23 11:15:14;;;;;;;9.60;3.90;;;;;;;14.36;67.28;96814.33;115654;1196;28596;-83
2021/09/23 11:17:46;;;;;;;8.90;4.10;;;;;;;14.22;66.88;96819.16;115789;1184;31734;-82
2021/09/23 11:20:20;;;;;;;8.90;4.20;;;;;;;14.12;66.62;96815.77;115830;1196;26776;-83
2021/09/23 11:22:55;;;;;;;7.70;4.20;;;;;;;14.15;66.72;96810.98;115697;1189;31085;-83
2021/09/23 11:25:28;;;;;;;8.90;4.00;;;;;;;14.25;66.76;96798.89;115690;1189;27966;-82
2021/09/23 11:28:00;;;;;;;9.60;3.80;;;;;;;14.39;66.73;96793.66;115689;1196;29118;-83
2021/09/23 11:30:34;;;;;;;9.70;3.80;;;;;;;14.56;67.10;96787.42;115721;1196;29363;-83
2021/09/23 11:33:07;;;;;;;10.90;4.40;;;;;;;14.59;65.94;96780.58;115699;1196;34001;-83
2021/09/23 11:35:41;;;;;;;8.50;4.10;;;;;;;14.54;66.17;96778.71;115648;1190;28964;-83
2021/09/23 11:38:14;;;;;;;8.30;4.10;;;;;;;14.55;66.19;96778.70;115725;1195;28417;-83
2021/09/23 11:40:47;;;;;;;7.70;3.70;;;;;;;14.51;66.08;96777.98;115751;1196;27790;-83